sensor_id;sensor_type;location;lat;lon;timestamp;P1;durP1;ratioP1;P2;durP2;ratioP2
52041;SDS011;38052;45.944;13.624;2022-08-26T00:01:37;9.75;;;6.72;;
52041;SDS011;38052;45.944;13.624;2022-08-26T00:04:03;10.88;;;7.07;;
52041;SDS011;38052;45.944;13.624;2022-08-26T00:06:30;8.57;;;6.70;;
52041;SDS011;38052;45.944;13.624;2022-08-26T00:08:57;10.40;;;6.80;;
52041;SDS011;38052;45.944;13.624;2022-08-26T00:11:23;7.28;;;6.57;;
52041;SDS011;38052;45.944;13.624;2022-08-26T00:13:50;13.90;;;7.45;;
52041;SDS011;38052;45.944;13.624;2022-08-26T00:16:16;11.50;;;7.13;;
52041;SDS011;38052;45.944;13.624;2022-08-26T00:18:43;8.40;;;7.15;;
52041;SDS011;38052;45.944;13.624;2022-08-26T00:21:09;8.80;;;7.22;;
52041;SDS011;38052;45.944;13.624;2022-08-26T00:23:36;12.20;;;7.22;;
52041;SDS011;38052;45.944;13.624;2022-08-26T00:26:03;7.65;;;6.15;;
52041;SDS011;38052;45.944;13.624;2022-08-26T00:28:30;9.50;;;7.07;;
52041;SDS011;38052;45.944;13.624;2022-08-26T00:30:56;10.77;;;7.15;;
52041;SDS011;38052;45.944;13.624;2022-08-26T00:33:22;9.02;;;7.13;;
52041;SDS011;38052;45.944;13.624;2022-08-26T00:35:49;10.05;;;7.03;;
52041;SDS011;38052;45.944;13.624;2022-08-26T00:38:15;8.95;;;6.40;;
52041;SDS011;38052;45.944;13.624;2022-08-26T00:40:45;11.93;;;6.95;;
52041;SDS011;38052;45.944;13.624;2022-08-26T00:43:12;12.15;;;6.68;;
52041;SDS011;38052;45.944;13.624;2022-08-26T00:45:40;9.68;;;7.47;;
52041;SDS011;38052;45.944;13.624;2022-08-26T00:48:08;8.73;;;7.30;;
52041;SDS011;38052;45.944;13.624;2022-08-26T00:50:35;10.57;;;7.68;;
52041;SDS011;38052;45.944;13.624;2022-08-26T00:53:04;7.82;;;6.53;;
52041;SDS011;38052;45.944;13.624;2022-08-26T00:55:45;7.63;;;6.85;;
52041;SDS011;38052;45.944;13.624;2022-08-26T00:58:12;12.27;;;7.00;;
52041;SDS011;38052;45.944;13.624;2022-08-26T01:00:39;10.75;;;6.88;;
52041;SDS011;38052;45.944;13.624;2022-08-26T01:03:06;9.93;;;6.13;;
52041;SDS011;38052;45.944;13.624;2022-08-26T01:05:32;10.43;;;7.68;;
52041;SDS011;38052;45.944;13.624;2022-08-26T01:07:59;9.88;;;7.05;;
52041;SDS011;38052;45.944;13.624;2022-08-26T01:10:27;10.68;;;8.02;;
52041;SDS011;38052;45.944;13.624;2022-08-26T01:12:57;9.50;;;7.18;;
52041;SDS011;38052;45.944;13.624;2022-08-26T01:15:25;12.90;;;7.55;;
52041;SDS011;38052;45.944;13.624;2022-08-26T01:17:52;7.70;;;7.00;;
52041;SDS011;38052;45.944;13.624;2022-08-26T01:25:21;8.45;;;7.50;;
52041;SDS011;38052;45.944;13.624;2022-08-26T01:27:48;7.85;;;7.05;;
52041;SDS011;38052;45.944;13.624;2022-08-26T01:30:15;8.27;;;7.30;;
52041;SDS011;38052;45.944;13.624;2022-08-26T01:32:41;9.05;;;7.25;;
52041;SDS011;38052;45.944;13.624;2022-08-26T01:35:08;10.55;;;6.85;;
52041;SDS011;38052;45.944;13.624;2022-08-26T01:37:35;11.70;;;7.80;;
52041;SDS011;38052;45.944;13.624;2022-08-26T01:40:02;8.50;;;7.60;;
52041;SDS011;38052;45.944;13.624;2022-08-26T01:42:29;7.65;;;6.55;;
52041;SDS011;38052;45.944;13.624;2022-08-26T01:45:00;10.43;;;7.80;;
52041;SDS011;38052;45.944;13.624;2022-08-26T01:47:29;8.25;;;6.25;;
52041;SDS011;38052;45.944;13.624;2022-08-26T01:49:56;7.47;;;6.65;;
52041;SDS011;38052;45.944;13.624;2022-08-26T01:52:25;10.45;;;6.57;;
52041;SDS011;38052;45.944;13.624;2022-08-26T01:54:52;10.95;;;6.85;;
52041;SDS011;38052;45.944;13.624;2022-08-26T01:57:20;9.43;;;6.93;;
52041;SDS011;38052;45.944;13.624;2022-08-26T01:59:48;7.82;;;5.90;;
52041;SDS011;38052;45.944;13.624;2022-08-26T02:02:15;8.48;;;7.28;;
52041;SDS011;38052;45.944;13.624;2022-08-26T02:04:46;9.05;;;6.47;;
52041;SDS011;38052;45.944;13.624;2022-08-26T02:07:13;11.25;;;6.40;;
52041;SDS011;38052;45.944;13.624;2022-08-26T02:09:41;9.23;;;6.65;;
52041;SDS011;38052;45.944;13.624;2022-08-26T02:12:08;12.23;;;6.03;;
52041;SDS011;38052;45.944;13.624;2022-08-26T02:14:36;14.13;;;6.47;;
52041;SDS011;38052;45.944;13.624;2022-08-26T02:17:04;13.27;;;6.72;;
52041;SDS011;38052;45.944;13.624;2022-08-26T02:19:33;10.18;;;7.05;;
52041;SDS011;38052;45.944;13.624;2022-08-26T02:22:03;11.40;;;7.43;;
52041;SDS011;38052;45.944;13.624;2022-08-26T02:24:43;11.60;;;5.90;;
52041;SDS011;38052;45.944;13.624;2022-08-26T02:27:11;8.13;;;6.22;;
52041;SDS011;38052;45.944;13.624;2022-08-26T02:29:39;9.93;;;7.00;;
52041;SDS011;38052;45.944;13.624;2022-08-26T02:32:07;10.33;;;7.07;;
52041;SDS011;38052;45.944;13.624;2022-08-26T02:34:34;7.32;;;5.75;;
52041;SDS011;38052;45.944;13.624;2022-08-26T02:37:02;9.20;;;6.10;;
52041;SDS011;38052;45.944;13.624;2022-08-26T02:39:30;7.63;;;5.82;;
52041;SDS011;38052;45.944;13.624;2022-08-26T02:41:56;9.90;;;6.53;;
52041;SDS011;38052;45.944;13.624;2022-08-26T02:44:23;8.98;;;6.60;;
52041;SDS011;38052;45.944;13.624;2022-08-26T02:46:49;7.07;;;6.00;;
52041;SDS011;38052;45.944;13.624;2022-08-26T02:49:16;9.10;;;6.60;;
52041;SDS011;38052;45.944;13.624;2022-08-26T02:51:43;7.88;;;6.80;;
52041;SDS011;38052;45.944;13.624;2022-08-26T02:54:10;13.80;;;7.25;;
52041;SDS011;38052;45.944;13.624;2022-08-26T02:56:37;9.80;;;7.07;;
52041;SDS011;38052;45.944;13.624;2022-08-26T02:59:03;11.35;;;6.43;;
52041;SDS011;38052;45.944;13.624;2022-08-26T03:01:30;11.02;;;6.60;;
52041;SDS011;38052;45.944;13.624;2022-08-26T03:03:57;9.77;;;7.03;;
52041;SDS011;38052;45.944;13.624;2022-08-26T03:06:24;9.70;;;6.95;;
52041;SDS011;38052;45.944;13.624;2022-08-26T03:08:50;6.93;;;6.22;;
52041;SDS011;38052;45.944;13.624;2022-08-26T03:11:17;8.43;;;6.63;;
52041;SDS011;38052;45.944;13.624;2022-08-26T03:13:44;8.30;;;6.00;;
52041;SDS011;38052;45.944;13.624;2022-08-26T03:16:11;9.15;;;6.78;;
52041;SDS011;38052;45.944;13.624;2022-08-26T03:18:40;7.43;;;5.82;;
52041;SDS011;38052;45.944;13.624;2022-08-26T03:21:07;9.30;;;7.30;;
52041;SDS011;38052;45.944;13.624;2022-08-26T03:23:35;13.70;;;7.30;;
52041;SDS011;38052;45.944;13.624;2022-08-26T03:26:02;11.10;;;6.03;;
52041;SDS011;38052;45.944;13.624;2022-08-26T03:28:28;10.48;;;6.20;;
52041;SDS011;38052;45.944;13.624;2022-08-26T03:30:55;10.82;;;6.53;;
52041;SDS011;38052;45.944;13.624;2022-08-26T03:33:22;7.65;;;6.70;;
52041;SDS011;38052;45.944;13.624;2022-08-26T03:35:48;9.43;;;6.93;;
52041;SDS011;38052;45.944;13.624;2022-08-26T03:38:15;7.63;;;6.85;;
52041;SDS011;38052;45.944;13.624;2022-08-26T03:40:42;8.48;;;6.55;;
52041;SDS011;38052;45.944;13.624;2022-08-26T03:43:08;9.73;;;6.82;;
52041;SDS011;38052;45.944;13.624;2022-08-26T03:45:35;12.80;;;7.07;;
52041;SDS011;38052;45.944;13.624;2022-08-26T03:48:01;9.65;;;7.78;;
52041;SDS011;38052;45.944;13.624;2022-08-26T03:50:28;10.13;;;7.03;;
52041;SDS011;38052;45.944;13.624;2022-08-26T03:52:55;8.35;;;6.53;;
52041;SDS011;38052;45.944;13.624;2022-08-26T03:55:25;12.02;;;8.07;;
52041;SDS011;38052;45.944;13.624;2022-08-26T04:00:18;10.35;;;7.15;;
52041;SDS011;38052;45.944;13.624;2022-08-26T04:02:45;9.32;;;7.55;;
52041;SDS011;38052;45.944;13.624;2022-08-26T04:05:13;10.18;;;7.28;;
52041;SDS011;38052;45.944;13.624;2022-08-26T04:07:40;13.45;;;8.60;;
52041;SDS011;38052;45.944;13.624;2022-08-26T04:10:07;10.68;;;7.88;;
52041;SDS011;38052;45.944;13.624;2022-08-26T04:12:34;13.48;;;7.90;;
52041;SDS011;38052;45.944;13.624;2022-08-26T04:15:01;13.80;;;8.88;;
52041;SDS011;38052;45.944;13.624;2022-08-26T04:17:28;9.75;;;6.68;;
52041;SDS011;38052;45.944;13.624;2022-08-26T04:19:55;11.98;;;7.65;;
52041;SDS011;38052;45.944;13.624;2022-08-26T04:22:21;8.60;;;7.40;;
52041;SDS011;38052;45.944;13.624;2022-08-26T04:24:48;14.40;;;8.35;;
52041;SDS011;38052;45.944;13.624;2022-08-26T04:27:14;17.23;;;8.07;;
52041;SDS011;38052;45.944;13.624;2022-08-26T04:29:41;10.73;;;7.72;;
52041;SDS011;38052;45.944;13.624;2022-08-26T04:32:08;11.48;;;8.88;;
52041;SDS011;38052;45.944;13.624;2022-08-26T04:34:34;10.40;;;8.68;;
52041;SDS011;38052;45.944;13.624;2022-08-26T04:37:01;17.17;;;8.00;;
52041;SDS011;38052;45.944;13.624;2022-08-26T04:39:28;10.68;;;7.70;;
52041;SDS011;38052;45.944;13.624;2022-08-26T04:41:54;10.15;;;8.18;;
52041;SDS011;38052;45.944;13.624;2022-08-26T04:44:21;11.48;;;7.75;;
52041;SDS011;38052;45.944;13.624;2022-08-26T04:46:49;8.95;;;7.32;;
52041;SDS011;38052;45.944;13.624;2022-08-26T04:49:16;9.93;;;8.45;;
52041;SDS011;38052;45.944;13.624;2022-08-26T04:51:42;8.63;;;7.80;;
52041;SDS011;38052;45.944;13.624;2022-08-26T04:54:08;11.30;;;8.60;;
52041;SDS011;38052;45.944;13.624;2022-08-26T04:56:37;9.48;;;7.50;;
52041;SDS011;38052;45.944;13.624;2022-08-26T04:59:04;10.85;;;8.45;;
52041;SDS011;38052;45.944;13.624;2022-08-26T05:01:32;12.10;;;8.02;;
52041;SDS011;38052;45.944;13.624;2022-08-26T05:03:58;8.95;;;7.22;;
52041;SDS011;38052;45.944;13.624;2022-08-26T05:06:25;10.20;;;6.95;;
52041;SDS011;38052;45.944;13.624;2022-08-26T05:08:52;10.00;;;8.13;;
52041;SDS011;38052;45.944;13.624;2022-08-26T05:11:18;9.50;;;8.35;;
52041;SDS011;38052;45.944;13.624;2022-08-26T05:13:45;11.38;;;7.45;;
52041;SDS011;38052;45.944;13.624;2022-08-26T05:16:12;8.57;;;7.78;;
52041;SDS011;38052;45.944;13.624;2022-08-26T05:18:40;12.52;;;7.68;;
52041;SDS011;38052;45.944;13.624;2022-08-26T05:21:07;10.50;;;7.60;;
52041;SDS011;38052;45.944;13.624;2022-08-26T05:23:36;12.85;;;8.13;;
52041;SDS011;38052;45.944;13.624;2022-08-26T05:26:05;9.05;;;8.15;;
52041;SDS011;38052;45.944;13.624;2022-08-26T05:28:32;13.45;;;8.32;;
52041;SDS011;38052;45.944;13.624;2022-08-26T05:30:59;14.35;;;8.55;;
52041;SDS011;38052;45.944;13.624;2022-08-26T05:33:25;14.45;;;7.95;;
52041;SDS011;38052;45.944;13.624;2022-08-26T05:35:52;13.18;;;8.40;;
52041;SDS011;38052;45.944;13.624;2022-08-26T05:38:19;11.70;;;8.57;;
52041;SDS011;38052;45.944;13.624;2022-08-26T05:40:47;11.63;;;7.47;;
52041;SDS011;38052;45.944;13.624;2022-08-26T05:43:14;13.20;;;8.77;;
52041;SDS011;38052;45.944;13.624;2022-08-26T05:45:49;14.73;;;9.18;;
52041;SDS011;38052;45.944;13.624;2022-08-26T05:48:16;16.25;;;8.75;;
52041;SDS011;38052;45.944;13.624;2022-08-26T05:50:44;12.05;;;8.32;;
52041;SDS011;38052;45.944;13.624;2022-08-26T05:53:11;9.45;;;7.75;;
52041;SDS011;38052;45.944;13.624;2022-08-26T05:55:46;10.52;;;6.72;;
52041;SDS011;38052;45.944;13.624;2022-08-26T05:58:12;13.85;;;8.32;;
52041;SDS011;38052;45.944;13.624;2022-08-26T06:00:39;10.85;;;8.23;;
52041;SDS011;38052;45.944;13.624;2022-08-26T06:03:05;9.95;;;7.85;;
52041;SDS011;38052;45.944;13.624;2022-08-26T06:05:36;16.38;;;8.32;;
52041;SDS011;38052;45.944;13.624;2022-08-26T06:08:02;11.05;;;7.85;;
52041;SDS011;38052;45.944;13.624;2022-08-26T06:13:10;16.13;;;8.75;;
52041;SDS011;38052;45.944;13.624;2022-08-26T06:15:40;11.23;;;7.57;;
52041;SDS011;38052;45.944;13.624;2022-08-26T06:20:32;13.27;;;7.72;;
52041;SDS011;38052;45.944;13.624;2022-08-26T06:23:00;17.35;;;6.95;;
52041;SDS011;38052;45.944;13.624;2022-08-26T06:25:45;13.45;;;6.82;;
52041;SDS011;38052;45.944;13.624;2022-08-26T06:28:12;9.88;;;6.78;;
52041;SDS011;38052;45.944;13.624;2022-08-26T06:30:39;13.05;;;6.30;;
52041;SDS011;38052;45.944;13.624;2022-08-26T06:33:06;12.77;;;5.80;;
52041;SDS011;38052;45.944;13.624;2022-08-26T06:35:39;10.57;;;6.32;;
52041;SDS011;38052;45.944;13.624;2022-08-26T06:38:06;13.63;;;6.75;;
52041;SDS011;38052;45.944;13.624;2022-08-26T06:40:38;11.70;;;6.15;;
52041;SDS011;38052;45.944;13.624;2022-08-26T06:43:05;11.60;;;7.03;;
52041;SDS011;38052;45.944;13.624;2022-08-26T06:45:31;12.75;;;6.40;;
52041;SDS011;38052;45.944;13.624;2022-08-26T06:47:58;8.40;;;6.38;;
52041;SDS011;38052;45.944;13.624;2022-08-26T06:50:25;9.30;;;5.75;;
52041;SDS011;38052;45.944;13.624;2022-08-26T06:52:51;12.27;;;6.10;;
52041;SDS011;38052;45.944;13.624;2022-08-26T06:55:18;9.48;;;6.00;;
52041;SDS011;38052;45.944;13.624;2022-08-26T06:57:45;8.73;;;6.00;;
52041;SDS011;38052;45.944;13.624;2022-08-26T07:00:11;9.02;;;6.35;;
52041;SDS011;38052;45.944;13.624;2022-08-26T07:02:39;9.95;;;6.07;;
52041;SDS011;38052;45.944;13.624;2022-08-26T07:05:05;8.80;;;6.32;;
52041;SDS011;38052;45.944;13.624;2022-08-26T07:07:31;15.35;;;5.63;;
52041;SDS011;38052;45.944;13.624;2022-08-26T07:09:57;7.10;;;6.05;;
52041;SDS011;38052;45.944;13.624;2022-08-26T07:12:24;11.68;;;5.93;;
52041;SDS011;38052;45.944;13.624;2022-08-26T07:14:51;15.73;;;5.85;;
52041;SDS011;38052;45.944;13.624;2022-08-26T07:17:17;8.60;;;5.68;;
52041;SDS011;38052;45.944;13.624;2022-08-26T07:19:45;6.97;;;6.30;;
52041;SDS011;38052;45.944;13.624;2022-08-26T07:22:11;10.25;;;6.38;;
52041;SDS011;38052;45.944;13.624;2022-08-26T07:24:38;7.25;;;5.63;;
52041;SDS011;38052;45.944;13.624;2022-08-26T07:27:08;9.35;;;5.82;;
52041;SDS011;38052;45.944;13.624;2022-08-26T07:29:36;8.18;;;5.93;;
52041;SDS011;38052;45.944;13.624;2022-08-26T07:32:03;11.40;;;6.75;;
52041;SDS011;38052;45.944;13.624;2022-08-26T07:34:29;10.25;;;6.40;;
52041;SDS011;38052;45.944;13.624;2022-08-26T07:36:59;12.23;;;6.97;;
52041;SDS011;38052;45.944;13.624;2022-08-26T07:39:26;7.75;;;6.38;;
52041;SDS011;38052;45.944;13.624;2022-08-26T07:41:52;8.95;;;6.32;;
52041;SDS011;38052;45.944;13.624;2022-08-26T07:44:18;9.63;;;6.22;;
52041;SDS011;38052;45.944;13.624;2022-08-26T07:46:45;13.55;;;6.53;;
52041;SDS011;38052;45.944;13.624;2022-08-26T07:49:11;8.23;;;5.75;;
52041;SDS011;38052;45.944;13.624;2022-08-26T07:51:38;9.82;;;6.13;;
52041;SDS011;38052;45.944;13.624;2022-08-26T07:54:04;10.30;;;6.38;;
52041;SDS011;38052;45.944;13.624;2022-08-26T07:56:31;10.00;;;6.00;;
52041;SDS011;38052;45.944;13.624;2022-08-26T07:58:57;8.70;;;6.70;;
52041;SDS011;38052;45.944;13.624;2022-08-26T08:01:25;8.35;;;5.65;;
52041;SDS011;38052;45.944;13.624;2022-08-26T08:03:51;8.38;;;6.30;;
52041;SDS011;38052;45.944;13.624;2022-08-26T08:06:18;9.55;;;6.60;;
52041;SDS011;38052;45.944;13.624;2022-08-26T08:08:45;9.75;;;6.65;;
52041;SDS011;38052;45.944;13.624;2022-08-26T08:11:12;7.90;;;6.07;;
52041;SDS011;38052;45.944;13.624;2022-08-26T08:13:39;9.02;;;6.78;;
52041;SDS011;38052;45.944;13.624;2022-08-26T08:16:06;7.70;;;5.75;;
52041;SDS011;38052;45.944;13.624;2022-08-26T08:18:32;13.35;;;6.90;;
52041;SDS011;38052;45.944;13.624;2022-08-26T08:20:59;9.68;;;6.93;;
52041;SDS011;38052;45.944;13.624;2022-08-26T08:23:27;11.15;;;5.72;;
52041;SDS011;38052;45.944;13.624;2022-08-26T08:26:00;7.85;;;6.57;;
52041;SDS011;38052;45.944;13.624;2022-08-26T08:28:27;11.07;;;6.43;;
52041;SDS011;38052;45.944;13.624;2022-08-26T08:30:53;11.68;;;7.70;;
52041;SDS011;38052;45.944;13.624;2022-08-26T08:33:20;9.30;;;5.95;;
52041;SDS011;38052;45.944;13.624;2022-08-26T08:35:46;9.82;;;6.78;;
52041;SDS011;38052;45.944;13.624;2022-08-26T08:38:13;9.45;;;6.70;;
52041;SDS011;38052;45.944;13.624;2022-08-26T08:40:40;13.27;;;7.57;;
52041;SDS011;38052;45.944;13.624;2022-08-26T08:43:11;12.73;;;7.57;;
52041;SDS011;38052;45.944;13.624;2022-08-26T08:45:39;9.80;;;7.00;;
52041;SDS011;38052;45.944;13.624;2022-08-26T08:50:46;7.93;;;6.95;;
52041;SDS011;38052;45.944;13.624;2022-08-26T08:53:31;11.90;;;7.43;;
52041;SDS011;38052;45.944;13.624;2022-08-26T09:01:16;8.40;;;7.25;;
52041;SDS011;38052;45.944;13.624;2022-08-26T09:03:52;12.60;;;7.82;;
52041;SDS011;38052;45.944;13.624;2022-08-26T09:06:20;11.95;;;8.85;;
52041;SDS011;38052;45.944;13.624;2022-08-26T09:08:48;13.43;;;7.88;;
52041;SDS011;38052;45.944;13.624;2022-08-26T09:11:16;7.85;;;7.00;;
52041;SDS011;38052;45.944;13.624;2022-08-26T09:13:50;11.60;;;7.43;;
52041;SDS011;38052;45.944;13.624;2022-08-26T09:16:19;13.13;;;9.07;;
52041;SDS011;38052;45.944;13.624;2022-08-26T09:21:31;9.32;;;7.95;;
52041;SDS011;38052;45.944;13.624;2022-08-26T09:23:57;13.55;;;8.10;;
52041;SDS011;38052;45.944;13.624;2022-08-26T09:31:26;10.32;;;8.13;;
52041;SDS011;38052;45.944;13.624;2022-08-26T09:36:49;10.57;;;8.32;;
52041;SDS011;38052;45.944;13.624;2022-08-26T09:44:26;13.10;;;8.52;;
52041;SDS011;38052;45.944;13.624;2022-08-26T09:46:54;13.38;;;8.18;;
52041;SDS011;38052;45.944;13.624;2022-08-26T09:50:23;12.30;;;8.00;;
52041;SDS011;38052;45.944;13.624;2022-08-26T09:52:21;12.55;;;8.38;;
52041;SDS011;38052;45.944;13.624;2022-08-26T09:55:02;9.18;;;7.72;;
52041;SDS011;38052;45.944;13.624;2022-08-26T09:57:30;11.77;;;8.32;;
52041;SDS011;38052;45.944;13.624;2022-08-26T09:59:57;15.48;;;8.50;;
52041;SDS011;38052;45.944;13.624;2022-08-26T10:04:51;15.93;;;8.90;;
52041;SDS011;38052;45.944;13.624;2022-08-26T10:10:04;10.52;;;7.72;;
52041;SDS011;38052;45.944;13.624;2022-08-26T10:12:33;13.17;;;8.90;;
52041;SDS011;38052;45.944;13.624;2022-08-26T10:15:05;11.45;;;8.55;;
52041;SDS011;38052;45.944;13.624;2022-08-26T10:17:35;12.18;;;7.75;;
52041;SDS011;38052;45.944;13.624;2022-08-26T10:22:35;9.93;;;8.20;;
52041;SDS011;38052;45.944;13.624;2022-08-26T10:25:04;13.55;;;7.32;;
52041;SDS011;38052;45.944;13.624;2022-08-26T10:30:09;10.75;;;8.02;;
52041;SDS011;38052;45.944;13.624;2022-08-26T10:32:40;8.30;;;7.50;;
52041;SDS011;38052;45.944;13.624;2022-08-26T10:35:09;14.32;;;8.88;;
52041;SDS011;38052;45.944;13.624;2022-08-26T10:37:40;9.82;;;8.00;;
52041;SDS011;38052;45.944;13.624;2022-08-26T10:42:39;12.05;;;8.65;;
52041;SDS011;38052;45.944;13.624;2022-08-26T10:45:08;10.75;;;7.43;;
52041;SDS011;38052;45.944;13.624;2022-08-26T10:47:36;8.30;;;7.55;;
52041;SDS011;38052;45.944;13.624;2022-08-26T10:50:05;7.68;;;6.90;;
52041;SDS011;38052;45.944;13.624;2022-08-26T10:55:34;10.27;;;7.38;;
52041;SDS011;38052;45.944;13.624;2022-08-26T11:00:30;9.43;;;7.13;;
52041;SDS011;38052;45.944;13.624;2022-08-26T11:08:49;8.65;;;6.88;;
52041;SDS011;38052;45.944;13.624;2022-08-26T11:14:06;10.45;;;7.25;;
52041;SDS011;38052;45.944;13.624;2022-08-26T11:19:02;6.57;;;5.88;;
52041;SDS011;38052;45.944;13.624;2022-08-26T11:21:41;11.07;;;6.80;;
52041;SDS011;38052;45.944;13.624;2022-08-26T11:24:08;10.27;;;6.25;;
52041;SDS011;38052;45.944;13.624;2022-08-26T11:26:35;6.93;;;5.25;;
52041;SDS011;38052;45.944;13.624;2022-08-26T11:29:01;7.00;;;6.32;;
52041;SDS011;38052;45.944;13.624;2022-08-26T11:41:44;9.40;;;6.07;;
52041;SDS011;38052;45.944;13.624;2022-08-26T11:44:10;10.05;;;6.45;;
52041;SDS011;38052;45.944;13.624;2022-08-26T11:46:49;8.27;;;6.60;;
52041;SDS011;38052;45.944;13.624;2022-08-26T11:49:16;8.57;;;6.85;;
52041;SDS011;38052;45.944;13.624;2022-08-26T11:51:42;10.20;;;6.43;;
52041;SDS011;38052;45.944;13.624;2022-08-26T11:54:11;9.50;;;6.40;;
52041;SDS011;38052;45.944;13.624;2022-08-26T11:56:38;10.38;;;6.15;;
52041;SDS011;38052;45.944;13.624;2022-08-26T11:59:09;11.52;;;5.95;;
52041;SDS011;38052;45.944;13.624;2022-08-26T12:01:37;8.93;;;5.15;;
52041;SDS011;38052;45.944;13.624;2022-08-26T12:04:04;8.48;;;6.30;;
52041;SDS011;38052;45.944;13.624;2022-08-26T12:06:35;9.27;;;5.13;;
52041;SDS011;38052;45.944;13.624;2022-08-26T12:09:04;8.85;;;5.70;;
52041;SDS011;38052;45.944;13.624;2022-08-26T12:11:34;7.25;;;5.63;;
52041;SDS011;38052;45.944;13.624;2022-08-26T12:14:07;9.02;;;5.22;;
52041;SDS011;38052;45.944;13.624;2022-08-26T12:16:35;10.18;;;5.18;;
52041;SDS011;38052;45.944;13.624;2022-08-26T12:21:48;6.50;;;5.18;;
52041;SDS011;38052;45.944;13.624;2022-08-26T12:24:17;6.78;;;4.93;;
52041;SDS011;38052;45.944;13.624;2022-08-26T12:26:45;9.18;;;5.13;;
52041;SDS011;38052;45.944;13.624;2022-08-26T12:29:21;5.90;;;5.18;;
52041;SDS011;38052;45.944;13.624;2022-08-26T12:31:49;6.07;;;4.90;;
52041;SDS011;38052;45.944;13.624;2022-08-26T12:34:16;6.20;;;4.78;;
52041;SDS011;38052;45.944;13.624;2022-08-26T12:36:53;8.90;;;5.13;;
52041;SDS011;38052;45.944;13.624;2022-08-26T12:39:24;7.50;;;4.88;;
52041;SDS011;38052;45.944;13.624;2022-08-26T12:41:55;7.55;;;4.22;;
52041;SDS011;38052;45.944;13.624;2022-08-26T12:47:01;7.00;;;4.50;;
52041;SDS011;38052;45.944;13.624;2022-08-26T12:49:27;6.13;;;4.72;;
52041;SDS011;38052;45.944;13.624;2022-08-26T12:51:53;5.72;;;4.13;;
52041;SDS011;38052;45.944;13.624;2022-08-26T12:54:20;7.10;;;4.45;;
52041;SDS011;38052;45.944;13.624;2022-08-26T12:57:10;14.80;;;4.63;;
52041;SDS011;38052;45.944;13.624;2022-08-26T12:59:36;5.95;;;4.95;;
52041;SDS011;38052;45.944;13.624;2022-08-26T13:02:02;12.05;;;4.90;;
52041;SDS011;38052;45.944;13.624;2022-08-26T13:07:11;8.60;;;4.20;;
52041;SDS011;38052;45.944;13.624;2022-08-26T13:09:37;7.45;;;3.72;;
52041;SDS011;38052;45.944;13.624;2022-08-26T13:12:04;7.28;;;4.78;;
52041;SDS011;38052;45.944;13.624;2022-08-26T13:14:30;9.45;;;4.40;;
52041;SDS011;38052;45.944;13.624;2022-08-26T13:16:56;10.13;;;4.50;;
52041;SDS011;38052;45.944;13.624;2022-08-26T13:19:23;6.93;;;4.38;;
52041;SDS011;38052;45.944;13.624;2022-08-26T13:21:54;7.78;;;4.13;;
52041;SDS011;38052;45.944;13.624;2022-08-26T13:24:34;7.78;;;4.80;;
52041;SDS011;38052;45.944;13.624;2022-08-26T13:27:02;7.60;;;4.68;;
52041;SDS011;38052;45.944;13.624;2022-08-26T13:29:28;8.18;;;4.90;;
52041;SDS011;38052;45.944;13.624;2022-08-26T13:31:55;5.80;;;5.03;;
52041;SDS011;38052;45.944;13.624;2022-08-26T13:34:21;5.40;;;4.30;;
52041;SDS011;38052;45.944;13.624;2022-08-26T13:36:48;6.35;;;5.30;;
52041;SDS011;38052;45.944;13.624;2022-08-26T13:39:14;5.20;;;4.40;;
52041;SDS011;38052;45.944;13.624;2022-08-26T13:41:41;9.25;;;4.65;;
52041;SDS011;38052;45.944;13.624;2022-08-26T13:44:08;11.13;;;5.95;;
52041;SDS011;38052;45.944;13.624;2022-08-26T13:46:34;10.68;;;5.20;;
52041;SDS011;38052;45.944;13.624;2022-08-26T13:49:01;11.40;;;5.47;;
52041;SDS011;38052;45.944;13.624;2022-08-26T13:51:27;7.80;;;5.15;;
52041;SDS011;38052;45.944;13.624;2022-08-26T13:53:54;7.75;;;5.50;;
52041;SDS011;38052;45.944;13.624;2022-08-26T13:56:21;8.90;;;5.38;;
52041;SDS011;38052;45.944;13.624;2022-08-26T13:58:48;8.13;;;5.05;;
52041;SDS011;38052;45.944;13.624;2022-08-26T14:01:15;6.47;;;5.18;;
52041;SDS011;38052;45.944;13.624;2022-08-26T14:03:42;7.78;;;5.43;;
52041;SDS011;38052;45.944;13.624;2022-08-26T14:06:08;9.20;;;4.88;;
52041;SDS011;38052;45.944;13.624;2022-08-26T14:08:35;8.85;;;4.97;;
52041;SDS011;38052;45.944;13.624;2022-08-26T14:11:01;6.00;;;4.88;;
52041;SDS011;38052;45.944;13.624;2022-08-26T14:13:27;12.65;;;5.25;;
52041;SDS011;38052;45.944;13.624;2022-08-26T14:15:54;10.85;;;5.05;;
52041;SDS011;38052;45.944;13.624;2022-08-26T14:18:25;7.00;;;5.30;;
52041;SDS011;38052;45.944;13.624;2022-08-26T14:20:53;7.38;;;4.82;;
52041;SDS011;38052;45.944;13.624;2022-08-26T14:23:20;11.10;;;6.15;;
52041;SDS011;38052;45.944;13.624;2022-08-26T14:25:46;7.95;;;6.25;;
52041;SDS011;38052;45.944;13.624;2022-08-26T14:28:12;8.02;;;5.22;;
52041;SDS011;38052;45.944;13.624;2022-08-26T14:30:39;10.23;;;5.90;;
52041;SDS011;38052;45.944;13.624;2022-08-26T14:33:08;9.68;;;6.00;;
52041;SDS011;38052;45.944;13.624;2022-08-26T14:35:35;9.30;;;6.38;;
52041;SDS011;38052;45.944;13.624;2022-08-26T14:38:01;13.65;;;6.85;;
52041;SDS011;38052;45.944;13.624;2022-08-26T14:40:28;6.00;;;5.40;;
52041;SDS011;38052;45.944;13.624;2022-08-26T14:42:56;11.45;;;6.18;;
52041;SDS011;38052;45.944;13.624;2022-08-26T14:45:23;8.68;;;6.00;;
52041;SDS011;38052;45.944;13.624;2022-08-26T14:47:50;10.02;;;5.80;;
52041;SDS011;38052;45.944;13.624;2022-08-26T14:50:18;8.90;;;6.40;;
52041;SDS011;38052;45.944;13.624;2022-08-26T14:52:46;8.23;;;5.93;;
52041;SDS011;38052;45.944;13.624;2022-08-26T14:55:31;9.93;;;6.63;;
52041;SDS011;38052;45.944;13.624;2022-08-26T14:57:59;9.38;;;6.53;;
52041;SDS011;38052;45.944;13.624;2022-08-26T15:00:26;9.00;;;6.32;;
52041;SDS011;38052;45.944;13.624;2022-08-26T15:02:53;9.32;;;6.50;;
52041;SDS011;38052;45.944;13.624;2022-08-26T15:05:19;8.25;;;6.63;;
52041;SDS011;38052;45.944;13.624;2022-08-26T15:07:46;12.40;;;6.65;;
52041;SDS011;38052;45.944;13.624;2022-08-26T15:10:14;8.60;;;6.53;;
52041;SDS011;38052;45.944;13.624;2022-08-26T15:12:40;9.70;;;7.13;;
52041;SDS011;38052;45.944;13.624;2022-08-26T15:15:08;9.95;;;6.90;;
52041;SDS011;38052;45.944;13.624;2022-08-26T15:17:35;12.00;;;6.85;;
52041;SDS011;38052;45.944;13.624;2022-08-26T15:20:02;9.63;;;6.13;;
52041;SDS011;38052;45.944;13.624;2022-08-26T15:22:28;8.30;;;6.90;;
52041;SDS011;38052;45.944;13.624;2022-08-26T15:24:55;8.65;;;6.05;;
52041;SDS011;38052;45.944;13.624;2022-08-26T15:27:22;12.18;;;6.57;;
52041;SDS011;38052;45.944;13.624;2022-08-26T15:29:48;8.60;;;6.72;;
52041;SDS011;38052;45.944;13.624;2022-08-26T15:32:16;7.60;;;6.40;;
52041;SDS011;38052;45.944;13.624;2022-08-26T15:34:42;8.57;;;6.68;;
52041;SDS011;38052;45.944;13.624;2022-08-26T15:37:09;9.45;;;6.85;;
52041;SDS011;38052;45.944;13.624;2022-08-26T15:39:35;6.70;;;5.88;;
52041;SDS011;38052;45.944;13.624;2022-08-26T15:42:01;14.68;;;7.43;;
52041;SDS011;38052;45.944;13.624;2022-08-26T15:44:27;8.52;;;6.10;;
52041;SDS011;38052;45.944;13.624;2022-08-26T15:46:53;7.97;;;6.28;;
52041;SDS011;38052;45.944;13.624;2022-08-26T15:49:20;11.80;;;6.25;;
52041;SDS011;38052;45.944;13.624;2022-08-26T15:51:47;14.40;;;6.60;;
52041;SDS011;38052;45.944;13.624;2022-08-26T15:54:19;9.57;;;7.00;;
52041;SDS011;38052;45.944;13.624;2022-08-26T15:56:46;11.30;;;6.17;;